PWSweather.com
Personal Weather Stations
Station Observations

PoschiavoCH

Lat: 46.31962499999999, Lon: 10.066551000000004

Elevation: 3517

Station Type: WH 1080

http://www.meteoposchiavo.com

High Low Average
Temperature 59.5°F15.3°C 28.4°F-2.0°C 38.5°F3.6°C
Dew Point 30.2°F-1.0°C 19.2°F-7.1°C 23.7°F-4.6°C
Winds Calm Calm Calm Calm Calm NECalm NE
Wind Gusts -- -- --
Humidity 75% 23% 58%
Pressure 27.12 in918.4 mb 27.04 in915.7 mb -
Precipitation 0.00 in0.0 mm - -
Hour Temp Dew Point Humidity Winds Wind Gusts Pressure Precip Precip Rate Daily Precip Total
12:00 AM 31.5°F-0.3°C 23.1°F-4.9°C 71% Calm Calm -- 27.11 in918.1 mb - 0.00 in0.0 mm 0.00 in0.0 mm
12:10 AM 30.9°F-0.6°C 23.0°F-5.0°C 72% Calm Calm -- 27.11 in918.1 mb - 0.00 in0.0 mm 0.00 in0.0 mm
12:15 AM 30.9°F-0.6°C 23.0°F-5.0°C 72% Calm Calm -- 27.11 in918.1 mb - 0.00 in0.0 mm 0.00 in0.0 mm
12:20 AM 31.5°F-0.3°C 23.1°F-4.9°C 71% Calm Calm -- 27.11 in918.1 mb - 0.00 in0.0 mm 0.00 in0.0 mm
12:25 AM 28.4°F-2.0°C 21.2°F-6.0°C 74% Calm Calm -- 27.11 in918.1 mb - 0.00 in0.0 mm 0.00 in0.0 mm
12:30 AM 28.4°F-2.0°C 21.2°F-6.0°C 74% Calm Calm -- 27.11 in918.1 mb - 0.00 in0.0 mm 0.00 in0.0 mm
12:35 AM 28.4°F-2.0°C 21.2°F-6.0°C 74% Calm Calm -- 27.11 in918.1 mb - 0.00 in0.0 mm 0.00 in0.0 mm
12:40 AM 28.8°F-1.8°C 21.2°F-6.0°C 73% Calm Calm -- 27.11 in918.1 mb - 0.00 in0.0 mm 0.00 in0.0 mm
12:45 AM 28.8°F-1.8°C 21.2°F-6.0°C 73% Calm Calm -- 27.11 in918.1 mb - 0.00 in0.0 mm 0.00 in0.0 mm
12:50 AM 28.4°F-2.0°C 21.2°F-6.0°C 74% Calm Calm -- 27.11 in918.1 mb - 0.00 in0.0 mm 0.00 in0.0 mm
12:55 AM 28.8°F-1.8°C 21.2°F-6.0°C 73% Calm Calm -- 27.11 in918.1 mb - 0.00 in0.0 mm 0.00 in0.0 mm
01:00 AM 30.0°F-1.1°C 21.1°F-6.1°C 69% Calm Calm -- 27.11 in918.1 mb - 0.00 in0.0 mm 0.00 in0.0 mm
01:10 AM 30.0°F-1.1°C 21.1°F-6.1°C 69% Calm Calm -- 27.11 in918.1 mb - 0.00 in0.0 mm 0.00 in0.0 mm
01:15 AM 29.1°F-1.6°C 21.2°F-6.0°C 72% Calm Calm -- 27.11 in918.1 mb - 0.00 in0.0 mm 0.00 in0.0 mm
01:20 AM 30.0°F-1.1°C 21.1°F-6.1°C 69% Calm Calm -- 27.11 in918.1 mb - 0.00 in0.0 mm 0.00 in0.0 mm
01:25 AM 30.0°F-1.1°C 21.1°F-6.1°C 69% Calm Calm -- 27.11 in918.1 mb - 0.00 in0.0 mm 0.00 in0.0 mm
01:30 AM 29.1°F-1.6°C 21.2°F-6.0°C 72% Calm Calm -- 27.11 in918.1 mb - 0.00 in0.0 mm 0.00 in0.0 mm
01:35 AM 29.1°F-1.6°C 21.2°F-6.0°C 72% Calm Calm -- 27.11 in918.1 mb - 0.00 in0.0 mm 0.00 in0.0 mm
01:40 AM 30.0°F-1.1°C 21.1°F-6.1°C 69% Calm Calm -- 27.11 in918.1 mb - 0.00 in0.0 mm 0.00 in0.0 mm
01:45 AM 31.1°F-0.5°C 21.1°F-6.1°C 66% Calm Calm -- 27.11 in918.1 mb - 0.00 in0.0 mm 0.00 in0.0 mm
01:50 AM 31.1°F-0.5°C 21.1°F-6.1°C 66% Calm Calm -- 27.11 in918.1 mb - 0.00 in0.0 mm 0.00 in0.0 mm
01:55 AM 31.1°F-0.5°C 21.1°F-6.1°C 66% Calm Calm -- 27.11 in918.1 mb - 0.00 in0.0 mm 0.00 in0.0 mm
02:00 AM 31.1°F-0.5°C 21.1°F-6.1°C 66% Calm Calm -- 27.11 in918.1 mb - 0.00 in0.0 mm 0.00 in0.0 mm
02:10 AM 31.1°F-0.5°C 21.1°F-6.1°C 66% Calm Calm -- 27.11 in918.1 mb - 0.00 in0.0 mm 0.00 in0.0 mm
02:15 AM 30.0°F-1.1°C 23.1°F-4.9°C 75% Calm Calm -- 27.11 in918.1 mb - 0.00 in0.0 mm 0.00 in0.0 mm
02:20 AM 30.0°F-1.1°C 23.1°F-4.9°C 75% Calm Calm -- 27.11 in918.1 mb - 0.00 in0.0 mm 0.00 in0.0 mm
02:25 AM 29.8°F-1.2°C 22.9°F-5.1°C 75% Calm Calm -- 27.11 in918.1 mb - 0.00 in0.0 mm 0.00 in0.0 mm
02:30 AM 29.8°F-1.2°C 22.9°F-5.1°C 75% Calm Calm -- 27.11 in918.1 mb - 0.00 in0.0 mm 0.00 in0.0 mm
02:35 AM 30.0°F-1.1°C 23.1°F-4.9°C 75% Calm Calm -- 27.11 in918.1 mb - 0.00 in0.0 mm 0.00 in0.0 mm
02:40 AM 29.8°F-1.2°C 22.9°F-5.1°C 75% Calm Calm -- 27.11 in918.1 mb - 0.00 in0.0 mm 0.00 in0.0 mm
02:45 AM 29.8°F-1.2°C 22.9°F-5.1°C 75% Calm Calm -- 27.11 in918.1 mb - 0.00 in0.0 mm 0.00 in0.0 mm
02:50 AM 29.8°F-1.2°C 22.9°F-5.1°C 75% Calm Calm -- 27.11 in918.1 mb - 0.00 in0.0 mm 0.00 in0.0 mm
02:55 AM 29.8°F-1.2°C 22.9°F-5.1°C 75% Calm Calm -- 27.11 in918.1 mb - 0.00 in0.0 mm 0.00 in0.0 mm
03:00 AM 29.8°F-1.2°C 22.9°F-5.1°C 75% Calm Calm -- 27.11 in918.1 mb - 0.00 in0.0 mm 0.00 in0.0 mm
03:10 AM 28.9°F-1.7°C 21.0°F-6.1°C 72% Calm Calm -- 27.11 in918.1 mb - 0.00 in0.0 mm 0.00 in0.0 mm
03:15 AM 28.6°F-1.9°C 21.3°F-5.9°C 74% Calm Calm -- 27.11 in918.1 mb - 0.00 in0.0 mm 0.00 in0.0 mm
03:20 AM 28.6°F-1.9°C 21.3°F-5.9°C 74% Calm Calm -- 27.11 in918.1 mb - 0.00 in0.0 mm 0.00 in0.0 mm
03:25 AM 28.6°F-1.9°C 21.3°F-5.9°C 74% Calm Calm -- 27.11 in918.1 mb - 0.00 in0.0 mm 0.00 in0.0 mm
03:30 AM 28.6°F-1.9°C 21.3°F-5.9°C 74% Calm Calm -- 27.11 in918.1 mb - 0.00 in0.0 mm 0.00 in0.0 mm
03:35 AM 28.6°F-1.9°C 21.3°F-5.9°C 74% Calm Calm -- 27.11 in918.1 mb - 0.00 in0.0 mm 0.00 in0.0 mm
03:40 AM 28.6°F-1.9°C 21.3°F-5.9°C 74% Calm Calm -- 27.11 in918.1 mb - 0.00 in0.0 mm 0.00 in0.0 mm
03:45 AM 28.6°F-1.9°C 21.3°F-5.9°C 74% Calm Calm -- 27.11 in918.1 mb - 0.00 in0.0 mm 0.00 in0.0 mm
03:50 AM 28.6°F-1.9°C 21.3°F-5.9°C 74% Calm Calm -- 27.11 in918.1 mb - 0.00 in0.0 mm 0.00 in0.0 mm
03:55 AM 28.6°F-1.9°C 21.3°F-5.9°C 74% Calm Calm -- 27.11 in918.1 mb - 0.00 in0.0 mm 0.00 in0.0 mm
04:00 AM 29.1°F-1.6°C 21.2°F-6.0°C 72% Calm Calm -- 27.11 in918.1 mb - 0.00 in0.0 mm 0.00 in0.0 mm
04:10 AM 28.8°F-1.8°C 21.2°F-6.0°C 73% Calm Calm -- 27.11 in918.1 mb - 0.00 in0.0 mm 0.00 in0.0 mm
04:15 AM 28.8°F-1.8°C 21.2°F-6.0°C 73% Calm Calm -- 27.11 in918.1 mb - 0.00 in0.0 mm 0.00 in0.0 mm
04:20 AM 28.8°F-1.8°C 21.2°F-6.0°C 73% Calm Calm -- 27.11 in918.1 mb - 0.00 in0.0 mm 0.00 in0.0 mm
04:25 AM 28.8°F-1.8°C 21.2°F-6.0°C 73% Calm Calm -- 27.11 in918.1 mb - 0.00 in0.0 mm 0.00 in0.0 mm
04:30 AM 28.8°F-1.8°C 21.2°F-6.0°C 73% Calm Calm -- 27.11 in918.1 mb - 0.00 in0.0 mm 0.00 in0.0 mm
04:35 AM 28.8°F-1.8°C 21.2°F-6.0°C 73% Calm Calm -- 27.11 in918.1 mb - 0.00 in0.0 mm 0.00 in0.0 mm
04:40 AM 28.6°F-1.9°C 21.3°F-5.9°C 74% Calm Calm -- 27.11 in918.1 mb - 0.00 in0.0 mm 0.00 in0.0 mm
04:45 AM 28.6°F-1.9°C 21.3°F-5.9°C 74% Calm Calm -- 27.11 in918.1 mb - 0.00 in0.0 mm 0.00 in0.0 mm
04:50 AM 28.6°F-1.9°C 21.3°F-5.9°C 74% Calm Calm -- 27.11 in918.1 mb - 0.00 in0.0 mm 0.00 in0.0 mm
04:55 AM 28.6°F-1.9°C 21.3°F-5.9°C 74% Calm Calm -- 27.11 in918.1 mb - 0.00 in0.0 mm 0.00 in0.0 mm
05:00 AM 28.6°F-1.9°C 21.3°F-5.9°C 74% Calm Calm -- 27.11 in918.1 mb - 0.00 in0.0 mm 0.00 in0.0 mm
05:10 AM 29.3°F-1.5°C 21.1°F-6.1°C 71% Calm Calm -- 27.11 in918.1 mb - 0.00 in0.0 mm 0.00 in0.0 mm
05:15 AM 28.6°F-1.9°C 21.3°F-5.9°C 74% Calm Calm -- 27.11 in918.1 mb - 0.00 in0.0 mm 0.00 in0.0 mm
05:20 AM 28.6°F-1.9°C 21.3°F-5.9°C 74% Calm Calm -- 27.11 in918.1 mb - 0.00 in0.0 mm 0.00 in0.0 mm
05:25 AM 28.6°F-1.9°C 21.3°F-5.9°C 74% Calm Calm -- 27.11 in918.1 mb - 0.00 in0.0 mm 0.00 in0.0 mm
05:30 AM 28.6°F-1.9°C 21.3°F-5.9°C 74% Calm Calm -- 27.11 in918.1 mb - 0.00 in0.0 mm 0.00 in0.0 mm
05:35 AM 29.1°F-1.6°C 21.2°F-6.0°C 72% Calm Calm -- 27.11 in918.1 mb - 0.00 in0.0 mm 0.00 in0.0 mm
05:40 AM 29.1°F-1.6°C 21.2°F-6.0°C 72% Calm Calm -- 27.11 in918.1 mb - 0.00 in0.0 mm 0.00 in0.0 mm
05:45 AM 29.1°F-1.6°C 21.2°F-6.0°C 72% Calm Calm -- 27.11 in918.1 mb - 0.00 in0.0 mm 0.00 in0.0 mm
05:50 AM 29.1°F-1.6°C 21.2°F-6.0°C 72% Calm Calm -- 27.11 in918.1 mb - 0.00 in0.0 mm 0.00 in0.0 mm
05:55 AM 29.1°F-1.6°C 21.2°F-6.0°C 72% Calm Calm -- 27.11 in918.1 mb - 0.00 in0.0 mm 0.00 in0.0 mm
06:00 AM 29.1°F-1.6°C 21.2°F-6.0°C 72% Calm Calm -- 27.11 in918.1 mb - 0.00 in0.0 mm 0.00 in0.0 mm
06:10 AM 29.1°F-1.6°C 21.2°F-6.0°C 72% Calm Calm -- 27.11 in918.1 mb - 0.00 in0.0 mm 0.00 in0.0 mm
06:15 AM 29.1°F-1.6°C 21.2°F-6.0°C 72% Calm Calm -- 27.11 in918.1 mb - 0.00 in0.0 mm 0.00 in0.0 mm
06:20 AM 29.8°F-1.2°C 21.2°F-6.0°C 70% Calm Calm -- 27.11 in918.1 mb - 0.00 in0.0 mm 0.00 in0.0 mm
06:25 AM 29.8°F-1.2°C 19.5°F-6.9°C 65% Calm Calm -- 27.11 in918.1 mb - 0.00 in0.0 mm 0.00 in0.0 mm
06:30 AM 29.8°F-1.2°C 21.2°F-6.0°C 70% Calm Calm -- 27.11 in918.1 mb - 0.00 in0.0 mm 0.00 in0.0 mm
06:35 AM 29.8°F-1.2°C 19.5°F-6.9°C 65% Calm Calm -- 27.11 in918.1 mb - 0.00 in0.0 mm 0.00 in0.0 mm
06:40 AM 29.8°F-1.2°C 19.5°F-6.9°C 65% Calm Calm -- 27.11 in918.1 mb - 0.00 in0.0 mm 0.00 in0.0 mm
06:45 AM 29.5°F-1.4°C 21.2°F-6.0°C 71% Calm Calm -- 27.11 in918.1 mb - 0.00 in0.0 mm 0.00 in0.0 mm
06:50 AM 29.5°F-1.4°C 21.2°F-6.0°C 71% Calm Calm -- 27.11 in918.1 mb - 0.00 in0.0 mm 0.00 in0.0 mm
06:55 AM 29.8°F-1.2°C 19.5°F-6.9°C 65% Calm Calm -- 27.11 in918.1 mb - 0.00 in0.0 mm 0.00 in0.0 mm
07:00 AM 29.8°F-1.2°C 19.5°F-6.9°C 65% Calm Calm -- 27.11 in918.1 mb - 0.00 in0.0 mm 0.00 in0.0 mm
07:10 AM 29.5°F-1.4°C 21.2°F-6.0°C 71% Calm Calm -- 27.11 in918.1 mb - 0.00 in0.0 mm 0.00 in0.0 mm
07:15 AM 29.5°F-1.4°C 21.2°F-6.0°C 71% Calm Calm -- 27.11 in918.1 mb - 0.00 in0.0 mm 0.00 in0.0 mm
07:20 AM 29.5°F-1.4°C 21.2°F-6.0°C 71% Calm Calm -- 27.11 in918.1 mb - 0.00 in0.0 mm 0.00 in0.0 mm
07:25 AM 29.7°F-1.3°C 21.1°F-6.1°C 70% Calm Calm -- 27.11 in918.1 mb - 0.00 in0.0 mm 0.00 in0.0 mm
07:30 AM 29.7°F-1.3°C 21.1°F-6.1°C 70% Calm Calm -- 27.11 in918.1 mb - 0.00 in0.0 mm 0.00 in0.0 mm
07:35 AM 29.7°F-1.3°C 21.1°F-6.1°C 70% Calm Calm -- 27.11 in918.1 mb - 0.00 in0.0 mm 0.00 in0.0 mm
07:40 AM 29.7°F-1.3°C 21.1°F-6.1°C 70% Calm Calm -- 27.11 in918.1 mb - 0.00 in0.0 mm 0.00 in0.0 mm
07:45 AM 29.3°F-1.5°C 21.1°F-6.1°C 71% Calm Calm -- 27.12 in918.4 mb - 0.00 in0.0 mm 0.00 in0.0 mm
07:50 AM 29.7°F-1.3°C 21.1°F-6.1°C 70% Calm Calm -- 27.12 in918.4 mb - 0.00 in0.0 mm 0.00 in0.0 mm
07:55 AM 29.3°F-1.5°C 21.1°F-6.1°C 71% Calm Calm -- 27.12 in918.4 mb - 0.00 in0.0 mm 0.00 in0.0 mm
08:00 AM 29.7°F-1.3°C 21.1°F-6.1°C 70% Calm Calm -- 27.12 in918.4 mb - 0.00 in0.0 mm 0.00 in0.0 mm
08:10 AM 29.3°F-1.5°C 21.1°F-6.1°C 71% Calm Calm -- 27.12 in918.4 mb - 0.00 in0.0 mm 0.00 in0.0 mm
08:15 AM 31.3°F-0.4°C 21.2°F-6.0°C 66% Calm Calm -- 27.12 in918.4 mb - 0.00 in0.0 mm 0.00 in0.0 mm
08:20 AM 30.7°F-0.7°C 19.2°F-7.1°C 62% Calm Calm -- 27.12 in918.4 mb - 0.00 in0.0 mm 0.00 in0.0 mm
08:25 AM 30.7°F-0.7°C 19.2°F-7.1°C 62% Calm Calm -- 27.12 in918.4 mb - 0.00 in0.0 mm 0.00 in0.0 mm
08:30 AM 30.7°F-0.7°C 19.2°F-7.1°C 62% Calm Calm -- 27.12 in918.4 mb - 0.00 in0.0 mm 0.00 in0.0 mm
08:35 AM 31.5°F-0.3°C 21.0°F-6.1°C 65% Calm Calm -- 27.12 in918.4 mb - 0.00 in0.0 mm 0.00 in0.0 mm
08:40 AM 30.7°F-0.7°C 19.2°F-7.1°C 62% Calm Calm -- 27.12 in918.4 mb - 0.00 in0.0 mm 0.00 in0.0 mm
08:45 AM 31.5°F-0.3°C 21.0°F-6.1°C 65% Calm Calm -- 27.12 in918.4 mb - 0.00 in0.0 mm 0.00 in0.0 mm
08:50 AM 31.5°F-0.3°C 21.0°F-6.1°C 65% Calm Calm -- 27.12 in918.4 mb - 0.00 in0.0 mm 0.00 in0.0 mm
08:55 AM 31.5°F-0.3°C 21.0°F-6.1°C 65% Calm Calm -- 27.12 in918.4 mb - 0.00 in0.0 mm 0.00 in0.0 mm
09:00 AM 31.5°F-0.3°C 21.0°F-6.1°C 65% Calm Calm -- 27.12 in918.4 mb - 0.00 in0.0 mm 0.00 in0.0 mm
09:10 AM 31.5°F-0.3°C 21.0°F-6.1°C 65% Calm Calm -- 27.12 in918.4 mb - 0.00 in0.0 mm 0.00 in0.0 mm
09:15 AM 31.5°F-0.3°C 21.0°F-6.1°C 65% Calm Calm -- 27.12 in918.4 mb - 0.00 in0.0 mm 0.00 in0.0 mm
09:20 AM 31.5°F-0.3°C 21.0°F-6.1°C 65% Calm Calm -- 27.12 in918.4 mb - 0.00 in0.0 mm 0.00 in0.0 mm
09:25 AM 33.4°F0.8°C 21.0°F-6.1°C 60% Calm Calm -- 27.12 in918.4 mb - 0.00 in0.0 mm 0.00 in0.0 mm
09:30 AM 32.9°F0.5°C 21.3°F-5.9°C 62% Calm Calm -- 27.12 in918.4 mb - 0.00 in0.0 mm 0.00 in0.0 mm
09:35 AM 33.4°F0.8°C 21.0°F-6.1°C 60% Calm Calm -- 27.12 in918.4 mb - 0.00 in0.0 mm 0.00 in0.0 mm
09:40 AM 32.9°F0.5°C 21.3°F-5.9°C 62% Calm Calm -- 27.12 in918.4 mb - 0.00 in0.0 mm 0.00 in0.0 mm
09:45 AM 32.9°F0.5°C 21.3°F-5.9°C 62% Calm Calm -- 27.12 in918.4 mb - 0.00 in0.0 mm 0.00 in0.0 mm
09:50 AM 32.9°F0.5°C 21.3°F-5.9°C 62% Calm Calm -- 27.12 in918.4 mb - 0.00 in0.0 mm 0.00 in0.0 mm
09:55 AM 32.9°F0.5°C 21.3°F-5.9°C 62% Calm Calm -- 27.12 in918.4 mb - 0.00 in0.0 mm 0.00 in0.0 mm
10:00 AM 32.9°F0.5°C 21.3°F-5.9°C 62% Calm Calm -- 27.12 in918.4 mb - 0.00 in0.0 mm 0.00 in0.0 mm
10:10 AM 35.1°F1.7°C 23.0°F-5.0°C 61% Calm Calm -- 27.12 in918.4 mb - 0.00 in0.0 mm 0.00 in0.0 mm
10:15 AM 35.1°F1.7°C 23.0°F-5.0°C 61% Calm Calm -- 27.12 in918.4 mb - 0.00 in0.0 mm 0.00 in0.0 mm
10:20 AM 36.7°F2.6°C 24.9°F-3.9°C 62% Calm Calm -- 27.12 in918.4 mb - 0.00 in0.0 mm 0.00 in0.0 mm
10:25 AM 36.7°F2.6°C 24.9°F-3.9°C 62% Calm Calm -- 27.12 in918.4 mb - 0.00 in0.0 mm 0.00 in0.0 mm
10:30 AM 36.7°F2.6°C 24.9°F-3.9°C 62% Calm Calm -- 27.12 in918.4 mb - 0.00 in0.0 mm 0.00 in0.0 mm
10:35 AM 36.7°F2.6°C 24.9°F-3.9°C 62% Calm Calm -- 27.12 in918.4 mb - 0.00 in0.0 mm 0.00 in0.0 mm
10:40 AM 40.3°F4.6°C 24.9°F-3.9°C 54% Calm Calm -- 27.12 in918.4 mb - 0.00 in0.0 mm 0.00 in0.0 mm
10:45 AM 40.3°F4.6°C 24.9°F-3.9°C 54% Calm Calm -- 27.12 in918.4 mb - 0.00 in0.0 mm 0.00 in0.0 mm
10:50 AM 40.3°F4.6°C 24.9°F-3.9°C 54% Calm Calm -- 27.12 in918.4 mb - 0.00 in0.0 mm 0.00 in0.0 mm
10:55 AM 48.9°F9.4°C 25.0°F-3.9°C 39% Calm Calm -- 27.12 in918.4 mb - 0.00 in0.0 mm 0.00 in0.0 mm
11:00 AM 48.9°F9.4°C 25.0°F-3.9°C 39% Calm Calm -- 27.12 in918.4 mb - 0.00 in0.0 mm 0.00 in0.0 mm
11:10 AM 48.9°F9.4°C 25.0°F-3.9°C 39% Calm Calm -- 27.12 in918.4 mb - 0.00 in0.0 mm 0.00 in0.0 mm
11:15 AM 40.3°F4.6°C 24.9°F-3.9°C 54% Calm Calm -- 27.12 in918.4 mb - 0.00 in0.0 mm 0.00 in0.0 mm
11:20 AM 48.9°F9.4°C 25.0°F-3.9°C 39% Calm Calm -- 27.12 in918.4 mb - 0.00 in0.0 mm 0.00 in0.0 mm
11:25 AM 49.3°F9.6°C 26.5°F-3.1°C 41% Calm Calm -- 27.12 in918.4 mb - 0.00 in0.0 mm 0.00 in0.0 mm
11:30 AM 49.3°F9.6°C 26.5°F-3.1°C 41% Calm Calm -- 27.12 in918.4 mb - 0.00 in0.0 mm 0.00 in0.0 mm
11:35 AM 49.3°F9.6°C 26.5°F-3.1°C 41% Calm Calm -- 27.12 in918.4 mb - 0.00 in0.0 mm 0.00 in0.0 mm
11:40 AM 54.7°F12.6°C 28.2°F-2.1°C 36% Calm Calm -- 27.12 in918.4 mb - 0.00 in0.0 mm 0.00 in0.0 mm
11:45 AM 54.7°F12.6°C 28.2°F-2.1°C 36% Calm Calm -- 27.12 in918.4 mb - 0.00 in0.0 mm 0.00 in0.0 mm
11:50 AM 49.3°F9.6°C 26.5°F-3.1°C 41% Calm Calm -- 27.12 in918.4 mb - 0.00 in0.0 mm 0.00 in0.0 mm
11:55 AM 54.7°F12.6°C 28.2°F-2.1°C 36% Calm Calm -- 27.12 in918.4 mb - 0.00 in0.0 mm 0.00 in0.0 mm
12:00 PM 54.7°F12.6°C 28.2°F-2.1°C 36% Calm Calm -- 27.12 in918.4 mb - 0.00 in0.0 mm 0.00 in0.0 mm
12:10 PM 54.7°F12.6°C 28.2°F-2.1°C 36% Calm Calm -- 27.12 in918.4 mb - 0.00 in0.0 mm 0.00 in0.0 mm
12:15 PM 54.3°F12.4°C 28.6°F-1.9°C 37% Calm Calm -- 27.12 in918.4 mb - 0.00 in0.0 mm 0.00 in0.0 mm
12:20 PM 54.3°F12.4°C 28.6°F-1.9°C 37% Calm Calm -- 27.12 in918.4 mb - 0.00 in0.0 mm 0.00 in0.0 mm
12:25 PM 54.3°F12.4°C 28.6°F-1.9°C 37% Calm Calm -- 27.12 in918.4 mb - 0.00 in0.0 mm 0.00 in0.0 mm
12:30 PM 55.4°F13.0°C 21.0°F-6.1°C 26% Calm Calm -- 27.12 in918.4 mb - 0.00 in0.0 mm 0.00 in0.0 mm
12:35 PM 55.4°F13.0°C 21.0°F-6.1°C 26% Calm Calm -- 27.12 in918.4 mb - 0.00 in0.0 mm 0.00 in0.0 mm
12:40 PM 56.5°F13.6°C 21.0°F-6.1°C 25% Calm Calm -- 27.12 in918.4 mb - 0.00 in0.0 mm 0.00 in0.0 mm
12:45 PM 55.4°F13.0°C 21.0°F-6.1°C 26% Calm Calm -- 27.12 in918.4 mb - 0.00 in0.0 mm 0.00 in0.0 mm
12:50 PM 55.4°F13.0°C 21.0°F-6.1°C 26% Calm Calm -- 27.12 in918.4 mb - 0.00 in0.0 mm 0.00 in0.0 mm
12:55 PM 56.5°F13.6°C 21.0°F-6.1°C 25% Calm Calm -- 27.12 in918.4 mb - 0.00 in0.0 mm 0.00 in0.0 mm
01:00 PM 56.5°F13.6°C 21.0°F-6.1°C 25% Calm Calm -- 27.12 in918.4 mb - 0.00 in0.0 mm 0.00 in0.0 mm
01:10 PM 51.1°F10.6°C 26.3°F-3.2°C 38% Calm Calm -- 27.12 in918.4 mb - 0.00 in0.0 mm 0.00 in0.0 mm
01:15 PM 51.1°F10.6°C 26.3°F-3.2°C 38% Calm Calm -- 27.12 in918.4 mb - 0.00 in0.0 mm 0.00 in0.0 mm
01:20 PM 56.5°F13.6°C 21.0°F-6.1°C 25% Calm Calm -- 27.12 in918.4 mb - 0.00 in0.0 mm 0.00 in0.0 mm
01:25 PM 56.5°F13.6°C 21.0°F-6.1°C 25% Calm Calm -- 27.12 in918.4 mb - 0.00 in0.0 mm 0.00 in0.0 mm
01:30 PM 54.0°F12.2°C 30.2°F-1.0°C 40% Calm Calm -- 27.12 in918.4 mb - 0.00 in0.0 mm 0.00 in0.0 mm
01:35 PM 51.1°F10.6°C 26.3°F-3.2°C 38% Calm Calm -- 27.12 in918.4 mb - 0.00 in0.0 mm 0.00 in0.0 mm
01:40 PM 54.0°F12.2°C 30.2°F-1.0°C 40% Calm Calm -- 27.12 in918.4 mb - 0.00 in0.0 mm 0.00 in0.0 mm
01:45 PM 54.0°F12.2°C 30.2°F-1.0°C 40% Calm Calm -- 27.12 in918.4 mb - 0.00 in0.0 mm 0.00 in0.0 mm
01:50 PM 54.0°F12.2°C 30.2°F-1.0°C 40% Calm Calm -- 27.12 in918.4 mb - 0.00 in0.0 mm 0.00 in0.0 mm
01:55 PM 54.0°F12.2°C 30.2°F-1.0°C 40% Calm Calm -- 27.12 in918.4 mb - 0.00 in0.0 mm 0.00 in0.0 mm
02:00 PM 54.0°F12.2°C 30.2°F-1.0°C 40% Calm Calm -- 27.12 in918.4 mb - 0.00 in0.0 mm 0.00 in0.0 mm
02:10 PM 57.4°F14.1°C 28.5°F-1.9°C 33% Calm Calm -- 27.12 in918.4 mb - 0.00 in0.0 mm 0.00 in0.0 mm
02:15 PM 59.5°F15.3°C 21.7°F-5.7°C 23% Calm Calm -- 27.12 in918.4 mb - 0.00 in0.0 mm 0.00 in0.0 mm
02:20 PM 59.5°F15.3°C 21.7°F-5.7°C 23% Calm Calm -- 27.12 in918.4 mb - 0.00 in0.0 mm 0.00 in0.0 mm
02:25 PM 59.5°F15.3°C 21.7°F-5.7°C 23% Calm Calm -- 27.12 in918.4 mb - 0.00 in0.0 mm 0.00 in0.0 mm
02:30 PM 59.5°F15.3°C 21.7°F-5.7°C 23% Calm Calm -- 27.12 in918.4 mb - 0.00 in0.0 mm 0.00 in0.0 mm
02:35 PM 59.5°F15.3°C 21.7°F-5.7°C 23% Calm Calm -- 27.12 in918.4 mb - 0.00 in0.0 mm 0.00 in0.0 mm
02:40 PM 59.5°F15.3°C 21.7°F-5.7°C 23% Calm Calm -- 27.12 in918.4 mb - 0.00 in0.0 mm 0.00 in0.0 mm
02:45 PM 59.5°F15.3°C 21.7°F-5.7°C 23% Calm Calm -- 27.12 in918.4 mb - 0.00 in0.0 mm 0.00 in0.0 mm
02:50 PM 53.8°F12.1°C 30.0°F-1.1°C 40% Calm Calm -- 27.12 in918.4 mb - 0.00 in0.0 mm 0.00 in0.0 mm
02:55 PM 53.8°F12.1°C 30.0°F-1.1°C 40% Calm Calm -- 27.12 in918.4 mb - 0.00 in0.0 mm 0.00 in0.0 mm
03:00 PM 53.8°F12.1°C 30.0°F-1.1°C 40% Calm Calm -- 27.12 in918.4 mb - 0.00 in0.0 mm 0.00 in0.0 mm
03:10 PM 53.8°F12.1°C 30.0°F-1.1°C 40% Calm Calm -- 27.12 in918.4 mb - 0.00 in0.0 mm 0.00 in0.0 mm
03:15 PM 54.5°F12.5°C 26.7°F-2.9°C 34% Calm Calm -- 27.12 in918.4 mb - 0.00 in0.0 mm 0.00 in0.0 mm
03:20 PM 56.1°F13.4°C 30.2°F-1.0°C 37% Calm Calm -- 27.12 in918.4 mb - 0.00 in0.0 mm 0.00 in0.0 mm
03:25 PM 56.1°F13.4°C 30.2°F-1.0°C 37% Calm Calm -- 27.12 in918.4 mb - 0.00 in0.0 mm 0.00 in0.0 mm
03:30 PM 56.1°F13.4°C 30.2°F-1.0°C 37% Calm Calm -- 27.12 in918.4 mb - 0.00 in0.0 mm 0.00 in0.0 mm
03:35 PM 56.1°F13.4°C 30.2°F-1.0°C 37% Calm Calm -- 27.12 in918.4 mb - 0.00 in0.0 mm 0.00 in0.0 mm
03:40 PM 56.1°F13.4°C 30.2°F-1.0°C 37% Calm Calm -- 27.12 in918.4 mb - 0.00 in0.0 mm 0.00 in0.0 mm
03:45 PM 56.1°F13.4°C 30.2°F-1.0°C 37% Calm Calm -- 27.12 in918.4 mb - 0.00 in0.0 mm 0.00 in0.0 mm
03:50 PM 56.1°F13.4°C 30.2°F-1.0°C 37% Calm Calm -- 27.12 in918.4 mb - 0.00 in0.0 mm 0.00 in0.0 mm
03:55 PM 56.1°F13.4°C 30.2°F-1.0°C 37% Calm Calm -- 27.12 in918.4 mb - 0.00 in0.0 mm 0.00 in0.0 mm
04:00 PM 56.1°F13.4°C 30.2°F-1.0°C 37% Calm Calm -- 27.12 in918.4 mb - 0.00 in0.0 mm 0.00 in0.0 mm
04:10 PM 48.6°F9.2°C 30.2°F-1.0°C 49% Calm Calm -- 27.12 in918.4 mb - 0.00 in0.0 mm 0.00 in0.0 mm
04:15 PM 48.6°F9.2°C 30.2°F-1.0°C 49% Calm Calm -- 27.12 in918.4 mb - 0.00 in0.0 mm 0.00 in0.0 mm
04:20 PM 48.6°F9.2°C 30.2°F-1.0°C 49% Calm Calm -- 27.12 in918.4 mb - 0.00 in0.0 mm 0.00 in0.0 mm
04:25 PM 48.6°F9.2°C 30.2°F-1.0°C 49% Calm Calm -- 27.12 in918.4 mb - 0.00 in0.0 mm 0.00 in0.0 mm
04:30 PM 48.6°F9.2°C 30.2°F-1.0°C 49% Calm Calm -- 27.12 in918.4 mb - 0.00 in0.0 mm 0.00 in0.0 mm
04:35 PM 48.6°F9.2°C 30.2°F-1.0°C 49% Calm Calm -- 27.12 in918.4 mb - 0.00 in0.0 mm 0.00 in0.0 mm
04:40 PM 48.6°F9.2°C 30.2°F-1.0°C 49% Calm Calm -- 27.12 in918.4 mb - 0.00 in0.0 mm 0.00 in0.0 mm
04:45 PM 48.6°F9.2°C 30.2°F-1.0°C 49% Calm Calm -- 27.12 in918.4 mb - 0.00 in0.0 mm 0.00 in0.0 mm
04:50 PM 48.6°F9.2°C 30.2°F-1.0°C 49% Calm Calm -- 27.12 in918.4 mb - 0.00 in0.0 mm 0.00 in0.0 mm
04:55 PM 43.5°F6.4°C 28.4°F-2.0°C 55% Calm Calm -- 27.12 in918.4 mb - 0.00 in0.0 mm 0.00 in0.0 mm
05:00 PM 43.5°F6.4°C 28.4°F-2.0°C 55% Calm Calm -- 27.12 in918.4 mb - 0.00 in0.0 mm 0.00 in0.0 mm
05:10 PM 44.8°F7.1°C 26.8°F-2.9°C 49% Calm Calm -- 27.12 in918.4 mb - 0.00 in0.0 mm 0.00 in0.0 mm
05:15 PM 44.8°F7.1°C 26.8°F-2.9°C 49% Calm Calm -- 27.12 in918.4 mb - 0.00 in0.0 mm 0.00 in0.0 mm
05:20 PM 43.5°F6.4°C 26.6°F-3.0°C 51% Calm Calm -- 27.12 in918.4 mb - 0.00 in0.0 mm 0.00 in0.0 mm
05:25 PM 43.5°F6.4°C 26.6°F-3.0°C 51% Calm Calm -- 27.12 in918.4 mb - 0.00 in0.0 mm 0.00 in0.0 mm
05:30 PM 43.5°F6.4°C 26.6°F-3.0°C 51% Calm Calm -- 27.12 in918.4 mb - 0.00 in0.0 mm 0.00 in0.0 mm
05:35 PM 43.5°F6.4°C 26.6°F-3.0°C 51% Calm Calm -- 27.12 in918.4 mb - 0.00 in0.0 mm 0.00 in0.0 mm
05:40 PM 43.5°F6.4°C 26.6°F-3.0°C 51% Calm Calm -- 27.12 in918.4 mb - 0.00 in0.0 mm 0.00 in0.0 mm
05:45 PM 43.5°F6.4°C 26.6°F-3.0°C 51% Calm Calm -- 27.12 in918.4 mb - 0.00 in0.0 mm 0.00 in0.0 mm
05:50 PM 43.5°F6.4°C 26.6°F-3.0°C 51% Calm Calm -- 27.12 in918.4 mb - 0.00 in0.0 mm 0.00 in0.0 mm
05:55 PM 43.5°F6.4°C 26.6°F-3.0°C 51% Calm Calm -- 27.12 in918.4 mb - 0.00 in0.0 mm 0.00 in0.0 mm
06:00 PM 43.5°F6.4°C 26.6°F-3.0°C 51% Calm Calm -- 27.12 in918.4 mb - 0.00 in0.0 mm 0.00 in0.0 mm
06:10 PM 42.6°F5.9°C 24.8°F-4.0°C 49% Calm Calm -- 27.12 in918.4 mb - 0.00 in0.0 mm 0.00 in0.0 mm
06:15 PM 41.9°F5.5°C 26.4°F-3.1°C 54% Calm Calm -- 27.12 in918.4 mb - 0.00 in0.0 mm 0.00 in0.0 mm
06:20 PM 41.9°F5.5°C 26.4°F-3.1°C 54% Calm Calm -- 27.12 in918.4 mb - 0.00 in0.0 mm 0.00 in0.0 mm
06:25 PM 41.9°F5.5°C 26.4°F-3.1°C 54% Calm Calm -- 27.12 in918.4 mb - 0.00 in0.0 mm 0.00 in0.0 mm
06:30 PM 41.9°F5.5°C 26.4°F-3.1°C 54% Calm Calm -- 27.12 in918.4 mb - 0.00 in0.0 mm 0.00 in0.0 mm
06:35 PM 41.9°F5.5°C 26.4°F-3.1°C 54% Calm Calm -- 27.12 in918.4 mb - 0.00 in0.0 mm 0.00 in0.0 mm
06:40 PM 41.9°F5.5°C 26.4°F-3.1°C 54% Calm Calm -- 27.12 in918.4 mb - 0.00 in0.0 mm 0.00 in0.0 mm
06:45 PM 42.6°F5.9°C 24.8°F-4.0°C 49% Calm Calm -- 27.12 in918.4 mb - 0.00 in0.0 mm 0.00 in0.0 mm
06:50 PM 41.9°F5.5°C 26.4°F-3.1°C 54% Calm Calm -- 27.12 in918.4 mb - 0.00 in0.0 mm 0.00 in0.0 mm
06:55 PM 38.8°F3.8°C 24.9°F-3.9°C 57% Calm Calm -- 27.12 in918.4 mb - 0.00 in0.0 mm 0.00 in0.0 mm
07:00 PM 38.8°F3.8°C 24.9°F-3.9°C 57% Calm Calm -- 27.12 in918.4 mb - 0.00 in0.0 mm 0.00 in0.0 mm
07:10 PM 37.0°F2.8°C 24.8°F-4.0°C 61% Calm Calm -- 27.12 in918.4 mb - 0.00 in0.0 mm 0.00 in0.0 mm
07:15 PM 37.0°F2.8°C 24.8°F-4.0°C 61% Calm Calm -- 27.12 in918.4 mb - 0.00 in0.0 mm 0.00 in0.0 mm
07:20 PM 38.8°F3.8°C 24.9°F-3.9°C 57% Calm Calm -- 27.12 in918.4 mb - 0.00 in0.0 mm 0.00 in0.0 mm
07:25 PM 37.0°F2.8°C 24.8°F-4.0°C 61% Calm Calm -- 27.12 in918.4 mb - 0.00 in0.0 mm 0.00 in0.0 mm
07:30 PM 37.0°F2.8°C 24.8°F-4.0°C 61% Calm Calm -- 27.12 in918.4 mb - 0.00 in0.0 mm 0.00 in0.0 mm
07:35 PM 37.0°F2.8°C 24.8°F-4.0°C 61% Calm Calm -- 27.12 in918.4 mb - 0.00 in0.0 mm 0.00 in0.0 mm
07:40 PM 37.0°F2.8°C 24.8°F-4.0°C 61% Calm Calm -- 27.12 in918.4 mb - 0.00 in0.0 mm 0.00 in0.0 mm
07:45 PM 36.9°F2.7°C 23.0°F-5.0°C 57% Calm Calm -- 27.04 in915.7 mb - 0.00 in0.0 mm 0.00 in0.0 mm
07:50 PM 38.3°F3.5°C 24.8°F-4.0°C 58% Calm Calm -- 27.04 in915.7 mb - 0.00 in0.0 mm 0.00 in0.0 mm
07:55 PM 38.3°F3.5°C 26.4°F-3.1°C 62% Calm Calm -- 27.04 in915.7 mb - 0.00 in0.0 mm 0.00 in0.0 mm
08:00 PM 38.3°F3.5°C 26.4°F-3.1°C 62% Calm Calm -- 27.04 in915.7 mb - 0.00 in0.0 mm 0.00 in0.0 mm
08:10 PM 38.3°F3.5°C 24.8°F-4.0°C 58% Calm Calm -- 27.04 in915.7 mb - 0.00 in0.0 mm 0.00 in0.0 mm
08:15 PM 38.3°F3.5°C 26.4°F-3.1°C 62% Calm Calm -- 27.04 in915.7 mb - 0.00 in0.0 mm 0.00 in0.0 mm
08:20 PM 38.3°F3.5°C 24.8°F-4.0°C 58% Calm Calm -- 27.04 in915.7 mb - 0.00 in0.0 mm 0.00 in0.0 mm
08:25 PM 38.3°F3.5°C 26.4°F-3.1°C 62% Calm Calm -- 27.04 in915.7 mb - 0.00 in0.0 mm 0.00 in0.0 mm
08:30 PM 38.3°F3.5°C 26.4°F-3.1°C 62% Calm Calm -- 27.04 in915.7 mb - 0.00 in0.0 mm 0.00 in0.0 mm
08:35 PM 36.0°F2.2°C 25.0°F-3.9°C 64% Calm Calm -- 27.05 in916.0 mb - 0.00 in0.0 mm 0.00 in0.0 mm
08:40 PM 36.0°F2.2°C 25.0°F-3.9°C 64% Calm Calm -- 27.05 in916.0 mb - 0.00 in0.0 mm 0.00 in0.0 mm
08:45 PM 36.0°F2.2°C 25.0°F-3.9°C 64% Calm Calm -- 27.05 in916.0 mb - 0.00 in0.0 mm 0.00 in0.0 mm
08:50 PM 36.7°F2.6°C 22.9°F-5.1°C 57% Calm Calm -- 27.05 in916.0 mb - 0.00 in0.0 mm 0.00 in0.0 mm
08:55 PM 36.7°F2.6°C 22.9°F-5.1°C 57% Calm Calm -- 27.05 in916.0 mb - 0.00 in0.0 mm 0.00 in0.0 mm
09:00 PM 36.0°F2.2°C 25.0°F-3.9°C 64% Calm Calm -- 27.05 in916.0 mb - 0.00 in0.0 mm 0.00 in0.0 mm
09:10 PM 36.0°F2.2°C 25.0°F-3.9°C 64% Calm Calm -- 27.05 in916.0 mb - 0.00 in0.0 mm 0.00 in0.0 mm
09:15 PM 36.7°F2.6°C 22.9°F-5.1°C 57% Calm Calm -- 27.05 in916.0 mb - 0.00 in0.0 mm 0.00 in0.0 mm
09:20 PM 36.7°F2.6°C 22.9°F-5.1°C 57% Calm Calm -- 27.05 in916.0 mb - 0.00 in0.0 mm 0.00 in0.0 mm
09:25 PM 36.7°F2.6°C 22.9°F-5.1°C 57% Calm Calm -- 27.05 in916.0 mb - 0.00 in0.0 mm 0.00 in0.0 mm
09:30 PM 36.0°F2.2°C 25.0°F-3.9°C 64% Calm Calm -- 27.05 in916.0 mb - 0.00 in0.0 mm 0.00 in0.0 mm
09:35 PM 36.1°F2.3°C 23.2°F-4.9°C 59% Calm Calm -- 27.05 in916.0 mb - 0.00 in0.0 mm 0.00 in0.0 mm
09:40 PM 37.0°F2.8°C 22.8°F-5.1°C 56% Calm Calm -- 27.05 in916.0 mb - 0.00 in0.0 mm 0.00 in0.0 mm
09:45 PM 35.4°F1.9°C 22.9°F-5.1°C 60% Calm Calm -- 27.05 in916.0 mb - 0.00 in0.0 mm 0.00 in0.0 mm
09:50 PM 35.4°F1.9°C 22.9°F-5.1°C 60% Calm Calm -- 27.05 in916.0 mb - 0.00 in0.0 mm 0.00 in0.0 mm
09:55 PM 35.4°F1.9°C 22.9°F-5.1°C 60% Calm Calm -- 27.05 in916.0 mb - 0.00 in0.0 mm 0.00 in0.0 mm
10:00 PM 35.4°F1.9°C 22.9°F-5.1°C 60% Calm Calm -- 27.05 in916.0 mb - 0.00 in0.0 mm 0.00 in0.0 mm
10:10 PM 35.4°F1.9°C 22.9°F-5.1°C 60% Calm Calm -- 27.05 in916.0 mb - 0.00 in0.0 mm 0.00 in0.0 mm
10:15 PM 35.4°F1.9°C 22.9°F-5.1°C 60% Calm Calm -- 27.05 in916.0 mb - 0.00 in0.0 mm 0.00 in0.0 mm
10:20 PM 35.4°F1.9°C 22.9°F-5.1°C 60% Calm Calm -- 27.05 in916.0 mb - 0.00 in0.0 mm 0.00 in0.0 mm
10:25 PM 36.0°F2.2°C 23.0°F-5.0°C 59% Calm Calm -- 27.05 in916.0 mb - 0.00 in0.0 mm 0.00 in0.0 mm
10:30 PM 35.1°F1.7°C 23.0°F-5.0°C 61% Calm Calm -- 27.05 in916.0 mb - 0.00 in0.0 mm 0.00 in0.0 mm
10:35 PM 36.0°F2.2°C 23.0°F-5.0°C 59% Calm Calm -- 27.05 in916.0 mb - 0.00 in0.0 mm 0.00 in0.0 mm
10:40 PM 34.3°F1.3°C 23.0°F-5.0°C 63% Calm Calm -- 27.05 in916.0 mb - 0.00 in0.0 mm 0.00 in0.0 mm
10:45 PM 34.3°F1.3°C 23.0°F-5.0°C 63% Calm Calm -- 27.05 in916.0 mb - 0.00 in0.0 mm 0.00 in0.0 mm
10:50 PM 35.1°F1.7°C 23.0°F-5.0°C 61% Calm Calm -- 27.05 in916.0 mb - 0.00 in0.0 mm 0.00 in0.0 mm
10:55 PM 35.1°F1.7°C 23.0°F-5.0°C 61% Calm Calm -- 27.05 in916.0 mb - 0.00 in0.0 mm 0.00 in0.0 mm
11:00 PM 34.3°F1.3°C 23.0°F-5.0°C 63% Calm Calm -- 27.05 in916.0 mb - 0.00 in0.0 mm 0.00 in0.0 mm
11:10 PM 35.1°F1.7°C 23.0°F-5.0°C 61% Calm Calm -- 27.05 in916.0 mb - 0.00 in0.0 mm 0.00 in0.0 mm
11:15 PM 34.9°F1.6°C 21.2°F-6.0°C 57% Calm Calm -- 27.05 in916.0 mb - 0.00 in0.0 mm 0.00 in0.0 mm
11:20 PM 34.9°F1.6°C 21.2°F-6.0°C 57% Calm Calm -- 27.05 in916.0 mb - 0.00 in0.0 mm 0.00 in0.0 mm
11:25 PM 34.9°F1.6°C 21.2°F-6.0°C 57% Calm Calm -- 27.05 in916.0 mb - 0.00 in0.0 mm 0.00 in0.0 mm
11:30 PM 32.5°F0.3°C 21.3°F-5.9°C 63% Calm Calm -- 27.05 in916.0 mb - 0.00 in0.0 mm 0.00 in0.0 mm
11:35 PM 32.5°F0.3°C 21.3°F-5.9°C 63% Calm Calm -- 27.05 in916.0 mb - 0.00 in0.0 mm 0.00 in0.0 mm
11:40 PM 33.1°F0.6°C 21.1°F-6.1°C 61% Calm Calm -- 27.05 in916.0 mb - 0.00 in0.0 mm 0.00 in0.0 mm
11:45 PM 33.1°F0.6°C 21.1°F-6.1°C 61% Calm Calm -- 27.05 in916.0 mb - 0.00 in0.0 mm 0.00 in0.0 mm
11:50 PM 33.1°F0.6°C 21.1°F-6.1°C 61% Calm Calm -- 27.05 in916.0 mb - 0.00 in0.0 mm 0.00 in0.0 mm
11:55 PM 34.9°F1.6°C 21.2°F-6.0°C 57% Calm Calm -- 27.05 in916.0 mb - 0.00 in0.0 mm 0.00 in0.0 mm